Time;durP1;ratioP1;P1;durP2;ratioP2;P2;SDS_P1;SDS_P2;PMS_P1;PMS_P2;Temp;Humidity;BMP_temperature;BMP_pressure;BME280_temperature;BME280_humidity;BME280_pressure;Samples;Min_cycle;Max_cycle;Signal;HPM_P1;HPM_P2
2024/02/18 00:02:19;;;;;;;15.95;11.02;;;;;;;;;;5019772;28;20050;-89
2024/02/18 00:04:47;;;;;;;12.45;10.02;;;;;;;;;;5002395;28;20200;-90
2024/02/18 00:07:14;;;;;;;12.93;9.52;;;;;;;;;;5003460;28;20517;-91
2024/02/18 00:09:42;;;;;;;17.92;12.07;;;;;;;;;;5005308;28;20491;-91
2024/02/18 00:12:09;;;;;;;16.75;10.73;;;;;;;;;;5001364;28;20069;-91
2024/02/18 00:14:36;;;;;;;14.13;9.98;;;;;;;;;;5001108;28;20060;-91
2024/02/18 00:17:03;;;;;;;11.23;9.43;;;;;;;;;;5001022;28;20084;-91
2024/02/18 00:19:32;;;;;;;11.80;9.45;;;;;;;;;;5001260;28;20117;-91
2024/02/18 00:22:00;;;;;;;13.27;10.10;;;;;;;;;;5000278;28;20105;-91
2024/02/18 00:24:27;;;;;;;14.27;11.55;;;;;;;;;;5001140;28;20070;-91
2024/02/18 00:26:55;;;;;;;12.20;9.40;;;;;;;;;;5000859;28;20050;-91
2024/02/18 00:29:25;;;;;;;14.45;9.32;;;;;;;;;;5006100;28;20080;-90
2024/02/18 00:31:52;;;;;;;21.50;10.48;;;;;;;;;;5004282;28;20047;-91
2024/02/18 00:34:20;;;;;;;14.05;10.23;;;;;;;;;;5008363;28;20050;-91
2024/02/18 00:36:50;;;;;;;14.73;9.63;;;;;;;;;;5000620;28;20054;-91
2024/02/18 00:39:18;;;;;;;15.02;10.65;;;;;;;;;;5000878;28;20476;-91
2024/02/18 00:41:46;;;;;;;15.02;10.07;;;;;;;;;;5005294;28;20141;-91
2024/02/18 00:44:13;;;;;;;37.20;16.45;;;;;;;;;;5009967;28;20545;-91
2024/02/18 00:46:40;;;;;;;18.30;11.00;;;;;;;;;;5004697;28;20077;-91
2024/02/18 00:49:21;;;;;;;15.82;10.65;;;;;;;;;;5000015;28;20083;-92
2024/02/18 00:51:49;;;;;;;14.50;9.25;;;;;;;;;;5009004;28;20490;-90
2024/02/18 00:54:16;;;;;;;17.77;10.10;;;;;;;;;;5009425;28;20054;-91
2024/02/18 00:56:43;;;;;;;12.95;9.77;;;;;;;;;;5004540;28;20053;-91
2024/02/18 00:59:11;;;;;;;12.68;9.00;;;;;;;;;;5004353;28;20105;-91
2024/02/18 01:01:38;;;;;;;14.27;9.82;;;;;;;;;;5004091;28;20058;-91
2024/02/18 01:04:05;;;;;;;12.98;10.00;;;;;;;;;;5005128;28;20054;-93
2024/02/18 01:06:32;;;;;;;17.88;11.95;;;;;;;;;;5004118;28;20046;-92
2024/02/18 01:09:00;;;;;;;17.30;11.07;;;;;;;;;;5003788;28;20056;-93
2024/02/18 01:11:27;;;;;;;15.50;9.68;;;;;;;;;;5004370;28;20046;-93
2024/02/18 01:13:54;;;;;;;16.88;11.05;;;;;;;;;;5012843;28;20054;-94
2024/02/18 01:16:22;;;;;;;14.05;9.60;;;;;;;;;;5023911;28;20034;-91
2024/02/18 01:18:50;;;;;;;13.95;9.32;;;;;;;;;;5006177;28;20065;-92
2024/02/18 01:21:18;;;;;;;16.15;9.48;;;;;;;;;;5003932;28;20097;-93
2024/02/18 01:23:45;;;;;;;18.40;10.20;;;;;;;;;;5004078;28;20085;-93
2024/02/18 01:26:13;;;;;;;15.23;9.95;;;;;;;;;;5004022;28;20557;-92
2024/02/18 01:28:41;;;;;;;15.80;9.82;;;;;;;;;;5002307;28;20050;-93
2024/02/18 01:31:09;;;;;;;17.15;10.10;;;;;;;;;;5007215;28;20053;-93
2024/02/18 01:33:36;;;;;;;16.08;10.02;;;;;;;;;;5009127;28;20061;-93
2024/02/18 01:36:03;;;;;;;17.38;10.30;;;;;;;;;;5003929;28;20116;-93
2024/02/18 01:38:32;;;;;;;16.88;10.20;;;;;;;;;;5003592;28;20062;-92
2024/02/18 01:40:59;;;;;;;15.63;10.02;;;;;;;;;;5003749;28;20076;-93
2024/02/18 01:43:26;;;;;;;19.70;10.68;;;;;;;;;;5003675;28;20089;-92
2024/02/18 01:45:55;;;;;;;15.35;10.45;;;;;;;;;;5003748;28;20503;-92
2024/02/18 01:48:24;;;;;;;18.65;10.18;;;;;;;;;;5003217;28;20046;-93
2024/02/18 01:50:51;;;;;;;13.00;9.80;;;;;;;;;;5003594;28;20098;-92
2024/02/18 01:53:19;;;;;;;16.23;10.43;;;;;;;;;;5003552;28;20563;-93
2024/02/18 01:55:47;;;;;;;18.73;11.35;;;;;;;;;;5003236;28;20050;-92
2024/02/18 01:58:14;;;;;;;16.77;10.85;;;;;;;;;;5003351;28;20046;-92
2024/02/18 02:00:43;;;;;;;12.25;8.77;;;;;;;;;;5003658;28;20073;-91
2024/02/18 02:03:10;;;;;;;20.63;10.85;;;;;;;;;;5003172;28;20050;-90
2024/02/18 02:05:39;;;;;;;20.73;11.23;;;;;;;;;;5002658;28;20050;-92
2024/02/18 02:08:07;;;;;;;16.35;9.27;;;;;;;;;;5010181;28;20112;-92
2024/02/18 02:10:35;;;;;;;9.82;7.85;;;;;;;;;;5005783;28;20046;-93
2024/02/18 02:13:02;;;;;;;9.95;7.28;;;;;;;;;;5002871;28;20054;-92
2024/02/18 02:15:29;;;;;;;10.85;8.55;;;;;;;;;;5003113;28;20051;-93
2024/02/18 02:17:57;;;;;;;13.82;8.77;;;;;;;;;;5002788;28;20503;-93
2024/02/18 02:20:24;;;;;;;14.38;8.85;;;;;;;;;;5003157;28;20058;-93
2024/02/18 02:22:51;;;;;;;13.82;9.77;;;;;;;;;;5002637;28;20105;-92
2024/02/18 02:25:19;;;;;;;12.13;8.73;;;;;;;;;;5010149;28;20110;-93
2024/02/18 02:27:49;;;;;;;11.63;8.63;;;;;;;;;;5003193;28;20073;-93
2024/02/18 02:30:17;;;;;;;13.93;8.25;;;;;;;;;;5009096;28;20030;-93
2024/02/18 02:32:44;;;;;;;12.68;8.10;;;;;;;;;;5017260;28;20078;-92
2024/02/18 02:35:11;;;;;;;14.00;8.07;;;;;;;;;;5002641;28;20057;-90
2024/02/18 02:37:39;;;;;;;10.40;8.23;;;;;;;;;;5002271;28;20092;-92
2024/02/18 02:40:08;;;;;;;11.55;7.63;;;;;;;;;;5002743;28;20065;-92
2024/02/18 02:42:35;;;;;;;14.65;8.85;;;;;;;;;;5002749;28;20065;-92
2024/02/18 02:45:02;;;;;;;10.77;7.43;;;;;;;;;;5001167;28;20046;-92
2024/02/18 02:47:30;;;;;;;10.70;7.30;;;;;;;;;;5008074;28;20045;-92
2024/02/18 02:49:57;;;;;;;11.98;7.22;;;;;;;;;;5005805;28;20050;-92
2024/02/18 02:52:24;;;;;;;11.63;7.15;;;;;;;;;;5009335;28;20057;-93
2024/02/18 02:54:53;;;;;;;14.85;7.78;;;;;;;;;;5002599;28;20072;-92
2024/02/18 02:57:21;;;;;;;9.60;7.35;;;;;;;;;;5002658;28;20050;-91
2024/02/18 02:59:48;;;;;;;22.05;7.72;;;;;;;;;;5002352;28;20065;-90
2024/02/18 03:02:15;;;;;;;12.00;7.30;;;;;;;;;;5006006;28;20540;-92
2024/02/18 03:04:43;;;;;;;10.93;7.18;;;;;;;;;;5006363;28;20077;-92
2024/02/18 03:07:10;;;;;;;8.32;6.75;;;;;;;;;;5001740;28;20054;-92
2024/02/18 03:09:38;;;;;;;7.30;6.43;;;;;;;;;;5002391;28;20108;-92
2024/02/18 03:12:05;;;;;;;8.23;5.70;;;;;;;;;;5004040;28;20344;-92
2024/02/18 03:14:32;;;;;;;7.13;5.93;;;;;;;;;;5007447;28;20077;-92
2024/02/18 03:17:00;;;;;;;8.60;6.20;;;;;;;;;;5009197;28;20042;-93
2024/02/18 03:19:27;;;;;;;8.63;6.10;;;;;;;;;;5007596;28;20081;-92
2024/02/18 03:21:54;;;;;;;8.68;6.75;;;;;;;;;;5010835;28;20069;-93
2024/02/18 03:24:21;;;;;;;10.40;6.55;;;;;;;;;;5009383;28;20148;-92
2024/02/18 03:26:49;;;;;;;8.10;6.20;;;;;;;;;;5001538;28;20066;-92
2024/02/18 03:29:16;;;;;;;7.53;6.70;;;;;;;;;;5001678;28;20109;-92
2024/02/18 03:31:43;;;;;;;11.75;6.60;;;;;;;;;;5001598;28;20503;-92
2024/02/18 03:34:10;;;;;;;13.30;7.40;;;;;;;;;;5001770;28;20073;-92
2024/02/18 03:36:38;;;;;;;7.97;6.88;;;;;;;;;;5001754;28;20110;-91
2024/02/18 03:39:05;;;;;;;12.30;8.13;;;;;;;;;;5011614;28;20046;-93
2024/02/18 03:41:32;;;;;;;8.73;6.80;;;;;;;;;;5013127;28;20509;-92
2024/02/18 03:43:59;;;;;;;8.32;6.57;;;;;;;;;;5006030;28;20054;-92
2024/02/18 03:46:27;;;;;;;9.93;7.35;;;;;;;;;;5026235;28;20058;-93
2024/02/18 03:48:54;;;;;;;14.07;7.55;;;;;;;;;;5003042;28;20120;-92
2024/02/18 03:51:21;;;;;;;9.20;7.03;;;;;;;;;;5001594;28;20545;-92
2024/02/18 03:53:48;;;;;;;9.30;6.85;;;;;;;;;;5001292;28;20065;-92
2024/02/18 03:56:16;;;;;;;8.63;7.07;;;;;;;;;;4997268;28;20049;-92
2024/02/18 03:58:43;;;;;;;8.25;7.32;;;;;;;;;;5005340;28;20100;-92
2024/02/18 04:01:10;;;;;;;8.02;6.70;;;;;;;;;;5001183;28;20051;-92
2024/02/18 04:03:38;;;;;;;8.65;7.07;;;;;;;;;;5001422;28;20124;-93
2024/02/18 04:06:05;;;;;;;14.43;7.60;;;;;;;;;;5000436;28;20136;-92
2024/02/18 04:08:33;;;;;;;12.32;6.85;;;;;;;;;;5000669;28;20077;-91
2024/02/18 04:11:00;;;;;;;11.07;7.07;;;;;;;;;;5001044;28;20101;-92
2024/02/18 04:13:27;;;;;;;9.30;7.25;;;;;;;;;;5001083;28;20108;-92
2024/02/18 04:15:54;;;;;;;8.90;7.22;;;;;;;;;;5001165;28;20046;-92
2024/02/18 04:18:22;;;;;;;17.10;8.00;;;;;;;;;;5000978;28;20078;-93
2024/02/18 04:20:51;;;;;;;13.85;8.05;;;;;;;;;;5009470;28;20418;-93
2024/02/18 04:23:18;;;;;;;12.75;8.70;;;;;;;;;;5001402;28;20054;-92
2024/02/18 04:25:45;;;;;;;11.73;9.20;;;;;;;;;;5001076;28;20077;-92
2024/02/18 04:28:12;;;;;;;12.18;8.60;;;;;;;;;;5003956;28;20049;-93
2024/02/18 04:30:40;;;;;;;10.13;7.75;;;;;;;;;;5008984;28;20050;-92
2024/02/18 04:33:07;;;;;;;17.42;8.88;;;;;;;;;;5012271;28;20057;-92
2024/02/18 04:35:34;;;;;;;8.65;7.03;;;;;;;;;;5005046;28;20054;-92
2024/02/18 04:38:03;;;;;;;12.73;7.20;;;;;;;;;;5004926;28;20495;-92
2024/02/18 04:40:30;;;;;;;10.80;7.95;;;;;;;;;;5005113;28;20466;-92
2024/02/18 04:42:57;;;;;;;11.60;8.13;;;;;;;;;;5012887;28;20053;-92
2024/02/18 04:45:25;;;;;;;15.13;8.80;;;;;;;;;;5006297;28;20073;-92
2024/02/18 04:47:52;;;;;;;14.95;8.07;;;;;;;;;;5004502;28;20046;-92
2024/02/18 04:50:19;;;;;;;12.40;8.32;;;;;;;;;;5004911;28;20064;-92
2024/02/18 04:52:47;;;;;;;10.75;7.82;;;;;;;;;;5004523;28;20050;-93
2024/02/18 04:55:14;;;;;;;12.82;7.18;;;;;;;;;;5004616;28;20058;-92
2024/02/18 04:57:41;;;;;;;10.40;7.25;;;;;;;;;;5011928;28;20100;-93
2024/02/18 05:00:10;;;;;;;8.18;6.40;;;;;;;;;;5020923;28;20045;-92
2024/02/18 05:02:37;;;;;;;7.40;6.20;;;;;;;;;;5016913;28;20058;-92
2024/02/18 05:05:05;;;;;;;9.45;6.35;;;;;;;;;;5004771;28;20061;-92
2024/02/18 05:07:32;;;;;;;8.43;6.38;;;;;;;;;;5003769;28;20132;-93
2024/02/18 05:10:03;;;;;;;7.85;5.63;;;;;;;;;;5004191;28;20634;-93
2024/02/18 05:12:30;;;;;;;6.20;5.60;;;;;;;;;;5004705;28;20137;-92
2024/02/18 05:14:58;;;;;;;7.53;5.53;;;;;;;;;;5011726;28;20054;-92
2024/02/18 05:17:25;;;;;;;7.72;5.40;;;;;;;;;;5010826;28;20104;-92
2024/02/18 05:19:53;;;;;;;11.88;6.03;;;;;;;;;;5004654;28;20491;-93
2024/02/18 05:22:20;;;;;;;6.57;5.65;;;;;;;;;;5003799;28;20057;-92
2024/02/18 05:24:48;;;;;;;8.25;5.05;;;;;;;;;;5004020;28;20100;-92
2024/02/18 05:27:15;;;;;;;6.57;5.88;;;;;;;;;;5011905;28;20082;-92
2024/02/18 05:29:42;;;;;;;7.03;5.75;;;;;;;;;;5007406;28;20058;-92
2024/02/18 05:32:10;;;;;;;9.32;6.40;;;;;;;;;;5004348;28;20054;-92
2024/02/18 05:34:37;;;;;;;9.18;6.22;;;;;;;;;;5004272;28;20458;-92
2024/02/18 05:37:05;;;;;;;8.20;6.70;;;;;;;;;;5006110;28;20054;-93
2024/02/18 05:39:32;;;;;;;10.65;6.53;;;;;;;;;;5009668;28;20047;-93
2024/02/18 05:41:59;;;;;;;8.73;6.05;;;;;;;;;;5004337;28;20057;-93
2024/02/18 05:44:26;;;;;;;8.30;6.38;;;;;;;;;;5015459;28;20057;-92
2024/02/18 05:46:54;;;;;;;9.25;6.10;;;;;;;;;;5007153;28;20085;-92
2024/02/18 05:49:21;;;;;;;12.45;6.47;;;;;;;;;;5011041;28;20054;-92
2024/02/18 05:51:55;;;;;;;10.27;7.40;;;;;;;;;;5004170;28;20043;-93
2024/02/18 05:54:23;;;;;;;15.50;7.53;;;;;;;;;;5004160;28;20058;-93
2024/02/18 05:56:51;;;;;;;10.52;7.63;;;;;;;;;;5012219;28;20064;-93
2024/02/18 05:59:18;;;;;;;14.75;6.72;;;;;;;;;;5007966;28;20068;-92
2024/02/18 06:01:45;;;;;;;15.73;8.52;;;;;;;;;;5015518;28;20046;-93
2024/02/18 06:04:13;;;;;;;17.77;9.52;;;;;;;;;;5007197;28;20058;-93
2024/02/18 06:06:40;;;;;;;44.33;11.05;;;;;;;;;;5008350;28;20070;-92
2024/02/18 06:09:08;;;;;;;24.50;10.60;;;;;;;;;;5003769;28;20050;-93
2024/02/18 06:11:36;;;;;;;19.88;9.15;;;;;;;;;;5005167;28;20047;-93
2024/02/18 06:14:04;;;;;;;20.95;11.23;;;;;;;;;;5018828;28;20053;-91
2024/02/18 06:16:31;;;;;;;21.50;10.90;;;;;;;;;;5019795;28;20050;-93
2024/02/18 06:18:59;;;;;;;16.52;9.65;;;;;;;;;;5003496;28;20058;-93
2024/02/18 06:21:26;;;;;;;15.85;9.73;;;;;;;;;;5002548;28;20062;-93
2024/02/18 06:23:56;;;;;;;14.90;9.70;;;;;;;;;;5003462;28;20134;-93
2024/02/18 06:26:24;;;;;;;13.45;9.65;;;;;;;;;;5010068;28;20085;-93
2024/02/18 06:28:51;;;;;;;14.27;9.18;;;;;;;;;;5002707;28;20144;-92
2024/02/18 06:31:18;;;;;;;26.48;11.82;;;;;;;;;;5002957;28;20054;-92
2024/02/18 06:33:46;;;;;;;16.13;9.95;;;;;;;;;;5002831;28;20054;-93
2024/02/18 06:36:13;;;;;;;29.55;11.25;;;;;;;;;;5002852;28;20126;-93
2024/02/18 06:38:44;;;;;;;46.28;12.95;;;;;;;;;;5009852;28;20085;-93
2024/02/18 06:41:12;;;;;;;29.20;12.30;;;;;;;;;;5002736;28;20058;-93
2024/02/18 06:43:39;;;;;;;19.15;10.27;;;;;;;;;;5002666;28;20061;-92
2024/02/18 06:46:06;;;;;;;35.03;12.82;;;;;;;;;;5002624;28;20054;-93
2024/02/18 06:48:38;;;;;;;28.58;11.75;;;;;;;;;;5009319;28;20487;-92
2024/02/18 06:51:06;;;;;;;31.95;10.65;;;;;;;;;;5014251;28;20482;-93
2024/02/18 06:53:33;;;;;;;13.68;9.77;;;;;;;;;;5008251;28;20112;-93
2024/02/18 06:56:00;;;;;;;14.25;9.88;;;;;;;;;;5002831;28;20050;-92
2024/02/18 06:58:27;;;;;;;47.20;13.23;;;;;;;;;;5002451;28;20047;-93
2024/02/18 07:00:55;;;;;;;40.03;12.23;;;;;;;;;;5002515;28;20054;-93
2024/02/18 07:03:23;;;;;;;17.35;9.88;;;;;;;;;;5002669;28;20058;-93
2024/02/18 07:05:50;;;;;;;14.82;10.30;;;;;;;;;;5001883;28;20050;-92
2024/02/18 07:08:17;;;;;;;29.65;12.27;;;;;;;;;;5002229;28;20483;-92
2024/02/18 07:10:45;;;;;;;22.38;11.40;;;;;;;;;;5002788;28;20058;-93
2024/02/18 07:13:12;;;;;;;16.25;10.35;;;;;;;;;;5002135;28;20103;-93
2024/02/18 07:15:39;;;;;;;43.38;14.38;;;;;;;;;;5009155;28;20103;-93
2024/02/18 07:18:07;;;;;;;35.97;14.65;;;;;;;;;;5005796;28;20054;-93
2024/02/18 07:20:34;;;;;;;37.63;15.15;;;;;;;;;;5007616;28;20138;-94
2024/02/18 07:23:02;;;;;;;38.15;15.60;;;;;;;;;;5008658;28;20082;-93
2024/02/18 07:25:29;;;;;;;30.90;14.50;;;;;;;;;;5002314;28;20058;-94
2024/02/18 07:27:56;;;;;;;36.88;16.65;;;;;;;;;;5002984;28;20050;-93
2024/02/18 07:30:24;;;;;;;28.88;14.48;;;;;;;;;;5021115;28;20053;-94
2024/02/18 07:32:51;;;;;;;22.23;12.98;;;;;;;;;;5003779;28;20062;-93
2024/02/18 07:35:18;;;;;;;24.40;13.30;;;;;;;;;;5001795;28;20068;-93
2024/02/18 07:37:46;;;;;;;24.30;14.68;;;;;;;;;;5000140;28;20050;-93
2024/02/18 07:40:15;;;;;;;19.55;13.10;;;;;;;;;;5000981;28;20479;-93
2024/02/18 07:42:44;;;;;;;20.27;13.77;;;;;;;;;;5000768;28;20058;-93
2024/02/18 07:45:11;;;;;;;25.60;14.15;;;;;;;;;;5000417;28;20505;-93
2024/02/18 07:47:39;;;;;;;16.25;11.20;;;;;;;;;;5001678;28;20070;-93
2024/02/18 07:50:07;;;;;;;22.27;13.15;;;;;;;;;;5011880;28;20069;-93
2024/02/18 07:52:34;;;;;;;15.98;12.02;;;;;;;;;;5006697;28;20470;-93
2024/02/18 07:55:02;;;;;;;17.70;11.35;;;;;;;;;;5001520;28;20054;-93
2024/02/18 07:57:30;;;;;;;16.42;11.43;;;;;;;;;;5001415;28;20133;-93
2024/02/18 07:59:57;;;;;;;14.20;9.48;;;;;;;;;;5001478;28;20050;-93
2024/02/18 08:02:26;;;;;;;15.52;9.95;;;;;;;;;;5001657;28;20417;-93
2024/02/18 08:04:54;;;;;;;12.60;9.57;;;;;;;;;;5001558;28;20052;-92
2024/02/18 08:07:23;;;;;;;11.63;8.40;;;;;;;;;;5008148;28;20157;-94
2024/02/18 08:09:51;;;;;;;12.50;9.38;;;;;;;;;;5006033;28;20050;-92
2024/02/18 08:12:18;;;;;;;10.35;8.85;;;;;;;;;;5001748;28;20053;-93
2024/02/18 08:14:45;;;;;;;9.70;8.15;;;;;;;;;;5009215;28;20050;-92
2024/02/18 08:17:13;;;;;;;11.55;8.55;;;;;;;;;;5004382;28;20050;-93
2024/02/18 08:19:40;;;;;;;10.23;8.00;;;;;;;;;;5009446;28;20723;-92
2024/02/18 08:22:07;;;;;;;8.55;7.43;;;;;;;;;;5000926;28;20054;-92
2024/02/18 08:24:35;;;;;;;12.07;6.60;;;;;;;;;;5001432;28;20443;-92
2024/02/18 08:27:02;;;;;;;9.63;6.50;;;;;;;;;;5010861;28;20064;-92
2024/02/18 08:29:29;;;;;;;6.40;5.72;;;;;;;;;;5007122;28;20109;-92
2024/02/18 08:32:00;;;;;;;5.95;5.43;;;;;;;;;;5006834;28;20057;-92
2024/02/18 08:34:27;;;;;;;5.45;4.95;;;;;;;;;;5000836;28;20058;-92
2024/02/18 08:36:56;;;;;;;6.95;5.53;;;;;;;;;;5010045;28;20042;-91
2024/02/18 08:39:23;;;;;;;4.75;4.40;;;;;;;;;;5007884;28;20050;-92
2024/02/18 08:41:55;;;;;;;5.55;4.60;;;;;;;;;;5003116;28;20054;-92
2024/02/18 08:44:22;;;;;;;6.00;4.75;;;;;;;;;;5022821;28;20054;-92
2024/02/18 08:46:50;;;;;;;6.70;5.25;;;;;;;;;;5003527;28;20050;-92
2024/02/18 08:49:17;;;;;;;4.80;4.30;;;;;;;;;;5008453;28;20058;-92
2024/02/18 08:51:45;;;;;;;6.47;4.72;;;;;;;;;;5001080;28;20487;-92
2024/02/18 08:54:12;;;;;;;6.22;4.57;;;;;;;;;;5003993;28;20445;-92
2024/02/18 08:56:39;;;;;;;4.68;4.20;;;;;;;;;;5005544;28;20047;-92
2024/02/18 08:59:07;;;;;;;5.05;4.25;;;;;;;;;;5000805;28;20121;-91
2024/02/18 09:01:34;;;;;;;4.68;4.28;;;;;;;;;;5000592;28;20042;-91
2024/02/18 09:04:02;;;;;;;9.00;4.22;;;;;;;;;;5010442;28;20085;-92
2024/02/18 09:06:30;;;;;;;4.65;4.18;;;;;;;;;;5006849;28;20483;-92
2024/02/18 09:08:57;;;;;;;5.32;3.97;;;;;;;;;;5000055;28;20462;-92
2024/02/18 09:11:24;;;;;;;4.45;4.05;;;;;;;;;;5005865;28;20057;-91
2024/02/18 09:13:52;;;;;;;4.90;3.97;;;;;;;;;;5004002;28;20050;-91
2024/02/18 09:16:19;;;;;;;6.78;6.18;;;;;;;;;;5010277;28;20054;-89
2024/02/18 09:18:46;;;;;;;9.02;5.05;;;;;;;;;;5006608;28;20553;-90
2024/02/18 09:21:14;;;;;;;5.05;4.57;;;;;;;;;;5027942;28;20046;-89
2024/02/18 09:23:41;;;;;;;6.60;4.43;;;;;;;;;;5007877;28;20054;-89
2024/02/18 09:26:12;;;;;;;28.10;16.10;;;;;;;;;;5004098;28;20050;-88
2024/02/18 09:28:39;;;;;;;6.07;5.50;;;;;;;;;;5010505;28;20061;-88
2024/02/18 09:31:08;;;;;;;5.53;4.97;;;;;;;;;;5007309;28;20054;-89
2024/02/18 09:33:36;;;;;;;12.32;8.57;;;;;;;;;;5009051;28;20065;-89
2024/02/18 09:36:03;;;;;;;7.10;5.80;;;;;;;;;;5003768;28;20149;-88
2024/02/18 09:38:30;;;;;;;6.65;6.05;;;;;;;;;;5003456;28;20050;-89
2024/02/18 09:40:57;;;;;;;6.43;5.80;;;;;;;;;;5004800;28;20054;-90
2024/02/18 09:43:27;;;;;;;5.78;5.22;;;;;;;;;;5014984;28;20049;-89
2024/02/18 09:45:55;;;;;;;8.95;5.28;;;;;;;;;;5006941;28;20050;-89
2024/02/18 09:48:23;;;;;;;5.85;5.22;;;;;;;;;;5010332;28;20237;-89
2024/02/18 09:50:51;;;;;;;7.00;5.40;;;;;;;;;;5003165;28;20050;-90
2024/02/18 09:53:20;;;;;;;8.32;5.93;;;;;;;;;;5003584;28;20070;-89
2024/02/18 09:55:49;;;;;;;5.40;5.00;;;;;;;;;;5011054;28;20053;-89
2024/02/18 09:58:19;;;;;;;6.32;4.90;;;;;;;;;;5019711;28;20077;-88
2024/02/18 10:00:46;;;;;;;5.82;4.45;;;;;;;;;;5011052;28;20446;-89
2024/02/18 10:03:14;;;;;;;5.88;4.53;;;;;;;;;;5006644;28;20538;-89
2024/02/18 10:05:42;;;;;;;4.63;4.22;;;;;;;;;;5007994;28;20054;-90
2024/02/18 10:08:10;;;;;;;4.38;3.72;;;;;;;;;;5013594;28;20062;-87
2024/02/18 10:10:37;;;;;;;4.75;3.50;;;;;;;;;;5008022;28;20108;-88
2024/02/18 10:13:05;;;;;;;5.90;4.65;;;;;;;;;;5006140;28;20062;-88
2024/02/18 10:15:33;;;;;;;4.40;3.97;;;;;;;;;;5008742;28;20562;-89
2024/02/18 10:18:02;;;;;;;4.47;3.60;;;;;;;;;;5003167;28;20046;-89
2024/02/18 10:20:30;;;;;;;5.85;4.60;;;;;;;;;;5003328;28;20046;-89
2024/02/18 10:22:57;;;;;;;4.65;3.60;;;;;;;;;;5011084;28;20073;-88
2024/02/18 10:25:25;;;;;;;3.70;3.22;;;;;;;;;;5004499;28;20133;-88
2024/02/18 10:27:57;;;;;;;7.18;3.20;;;;;;;;;;5002508;28;20054;-88
2024/02/18 10:30:24;;;;;;;4.32;3.20;;;;;;;;;;5014379;28;20050;-90
2024/02/18 10:32:53;;;;;;;4.18;3.40;;;;;;;;;;5006527;28;20070;-90
2024/02/18 10:35:21;;;;;;;4.43;3.60;;;;;;;;;;5013508;28;20086;-88
2024/02/18 10:37:51;;;;;;;4.40;4.00;;;;;;;;;;5002705;28;20047;-90
2024/02/18 10:40:25;;;;;;;4.07;3.67;;;;;;;;;;4998980;28;20046;-88
2024/02/18 10:42:54;;;;;;;4.22;3.60;;;;;;;;;;5014401;28;20073;-90
2024/02/18 10:45:21;;;;;;;6.57;3.53;;;;;;;;;;5014426;28;20046;-89
2024/02/18 10:47:51;;;;;;;5.07;3.35;;;;;;;;;;5005599;28;20046;-89
2024/02/18 10:50:19;;;;;;;4.63;3.35;;;;;;;;;;5009893;28;20093;-88
2024/02/18 10:52:49;;;;;;;3.80;3.50;;;;;;;;;;5002706;28;20487;-88
2024/02/18 10:55:24;;;;;;;5.18;3.25;;;;;;;;;;5002595;28;20121;-89
2024/02/18 10:57:56;;;;;;;5.65;3.90;;;;;;;;;;5002195;28;20050;-87
2024/02/18 11:00:28;;;;;;;4.15;3.30;;;;;;;;;;5001895;28;20064;-89
2024/02/18 11:03:07;;;;;;;3.90;3.20;;;;;;;;;;5010999;28;20053;-90
2024/02/18 11:05:35;;;;;;;4.82;3.22;;;;;;;;;;5007894;28;20054;-90
2024/02/18 11:08:04;;;;;;;5.28;3.45;;;;;;;;;;5008352;28;20085;-90
2024/02/18 11:10:32;;;;;;;4.38;3.13;;;;;;;;;;5004279;28;20049;-89
2024/02/18 11:13:00;;;;;;;4.25;2.75;;;;;;;;;;5011413;28;20052;-88
2024/02/18 11:15:27;;;;;;;3.72;3.22;;;;;;;;;;5008344;28;20050;-89
2024/02/18 11:17:55;;;;;;;3.25;2.95;;;;;;;;;;5007265;28;20141;-91
2024/02/18 11:20:23;;;;;;;3.17;2.70;;;;;;;;;;5001809;28;20069;-89
2024/02/18 11:22:52;;;;;;;5.07;3.47;;;;;;;;;;5001561;28;20458;-90
2024/02/18 11:25:20;;;;;;;7.35;4.70;;;;;;;;;;5005999;28;20053;-88
2024/02/18 11:27:47;;;;;;;4.03;3.08;;;;;;;;;;5010875;28;20056;-88
2024/02/18 11:30:15;;;;;;;2.70;2.50;;;;;;;;;;5002128;28;20057;-89
2024/02/18 11:32:42;;;;;;;4.63;3.25;;;;;;;;;;5001804;28;20042;-89
2024/02/18 11:35:10;;;;;;;3.25;2.92;;;;;;;;;;5001818;28;20058;-89
2024/02/18 11:37:39;;;;;;;5.50;2.80;;;;;;;;;;5001322;28;20136;-89
2024/02/18 11:40:10;;;;;;;5.22;2.75;;;;;;;;;;5008795;28;20049;-90
2024/02/18 11:42:41;;;;;;;17.48;12.07;;;;;;;;;;5004926;28;20050;-89
2024/02/18 11:45:11;;;;;;;2.33;2.13;;;;;;;;;;5001837;28;20047;-90
2024/02/18 11:47:44;;;;;;;2.15;1.95;;;;;;;;;;5004068;28;20487;-88
2024/02/18 11:50:12;;;;;;;2.50;1.50;;;;;;;;;;5004576;28;20452;-89
2024/02/18 11:52:40;;;;;;;2.15;1.95;;;;;;;;;;5001299;28;20419;-88
2024/02/18 11:55:17;;;;;;;2.63;2.00;;;;;;;;;;5001148;28;20074;-88
2024/02/18 11:57:46;;;;;;;1.70;1.60;;;;;;;;;;5000807;28;20057;-90
2024/02/18 12:00:16;;;;;;;2.10;1.90;;;;;;;;;;5013135;28;20047;-88
2024/02/18 12:02:50;;;;;;;1.92;1.50;;;;;;;;;;5012570;28;20053;-86
2024/02/18 12:05:18;;;;;;;1.20;1.20;;;;;;;;;;5001366;28;20054;-87
2024/02/18 12:07:49;;;;;;;2.20;1.42;;;;;;;;;;5005203;28;20054;-88
2024/02/18 12:10:17;;;;;;;1.60;1.30;;;;;;;;;;5001305;28;20046;-87
2024/02/18 12:12:45;;;;;;;1.38;1.20;;;;;;;;;;5008872;28;20086;-88
2024/02/18 12:15:21;;;;;;;3.95;1.25;;;;;;;;;;5004439;28;20100;-87
2024/02/18 12:17:52;;;;;;;1.42;1.33;;;;;;;;;;5005612;28;20050;-91
2024/02/18 12:20:22;;;;;;;2.33;1.50;;;;;;;;;;5008675;28;20049;-86
2024/02/18 12:22:50;;;;;;;1.90;1.80;;;;;;;;;;5000609;28;20483;-91
2024/02/18 12:25:17;;;;;;;2.13;1.90;;;;;;;;;;5007763;28;20100;-89
2024/02/18 12:27:45;;;;;;;2.03;1.83;;;;;;;;;;5003877;28;20058;-93
2024/02/18 12:30:18;;;;;;;2.42;2.30;;;;;;;;;;5005418;28;20141;-91
2024/02/18 12:32:46;;;;;;;2.22;2.03;;;;;;;;;;5010761;28;20335;-92
2024/02/18 12:35:13;;;;;;;1.98;1.77;;;;;;;;;;5008232;28;20564;-90
2024/02/18 12:37:41;;;;;;;4.13;1.80;;;;;;;;;;5005196;28;20132;-89
2024/02/18 12:40:09;;;;;;;2.42;1.70;;;;;;;;;;5000982;28;20157;-89
2024/02/18 12:42:36;;;;;;;2.22;2.03;;;;;;;;;;5000669;28;20109;-91
2024/02/18 12:45:25;;;;;;;2.65;2.20;;;;;;;;;;5004277;28;20517;-87
2024/02/18 12:48:12;;;;;;;4.63;2.30;;;;;;;;;;5004429;28;20076;-92
2024/02/18 12:50:41;;;;;;;2.42;2.22;;;;;;;;;;5007197;28;20128;-90
2024/02/18 12:53:08;;;;;;;2.33;2.13;;;;;;;;;;5015616;28;20477;-91
2024/02/18 12:55:37;;;;;;;3.05;2.40;;;;;;;;;;5012833;28;20137;-90
2024/02/18 12:58:05;;;;;;;2.95;2.65;;;;;;;;;;5004335;28;20134;-92
2024/02/18 13:00:32;;;;;;;2.47;2.20;;;;;;;;;;5006378;28;20058;-91
2024/02/18 13:03:04;;;;;;;2.30;2.10;;;;;;;;;;5026537;28;20133;-89
2024/02/18 13:05:31;;;;;;;2.78;2.30;;;;;;;;;;4997392;28;20116;-90
2024/02/18 13:08:04;;;;;;;2.05;1.80;;;;;;;;;;5005221;28;20053;-90
2024/02/18 13:10:32;;;;;;;4.03;2.00;;;;;;;;;;5010418;28;20466;-92
2024/02/18 13:13:01;;;;;;;1.92;1.83;;;;;;;;;;5011740;28;20054;-91
2024/02/18 13:15:28;;;;;;;2.00;1.60;;;;;;;;;;5015889;28;20475;-91
2024/02/18 13:17:55;;;;;;;2.20;1.55;;;;;;;;;;5015500;28;20065;-90
2024/02/18 13:20:23;;;;;;;2.40;2.00;;;;;;;;;;5012542;28;20046;-90
2024/02/18 13:22:50;;;;;;;3.58;2.47;;;;;;;;;;5012630;28;20076;-90
2024/02/18 13:25:17;;;;;;;3.10;2.10;;;;;;;;;;5015897;28;20050;-91
2024/02/18 13:27:45;;;;;;;2.67;2.47;;;;;;;;;;5007941;28;20043;-90
2024/02/18 13:30:13;;;;;;;2.50;1.77;;;;;;;;;;5003946;28;20133;-91
2024/02/18 13:32:48;;;;;;;1.45;1.35;;;;;;;;;;5003925;28;20050;-91
2024/02/18 13:35:16;;;;;;;1.63;1.52;;;;;;;;;;5004363;28;20058;-90
2024/02/18 13:37:43;;;;;;;1.50;1.40;;;;;;;;;;5010713;28;20133;-91
2024/02/18 13:40:11;;;;;;;1.23;1.15;;;;;;;;;;5011939;28;20496;-90
2024/02/18 13:42:38;;;;;;;1.30;1.20;;;;;;;;;;5010186;28;20058;-90
2024/02/18 13:45:06;;;;;;;1.83;1.05;;;;;;;;;;5006959;28;20113;-90
2024/02/18 13:47:33;;;;;;;1.95;1.05;;;;;;;;;;5009283;28;20054;-91
2024/02/18 13:50:01;;;;;;;1.48;1.20;;;;;;;;;;5003674;28;20085;-88
2024/02/18 13:52:28;;;;;;;1.25;1.00;;;;;;;;;;5004002;28;20054;-91
2024/02/18 13:54:55;;;;;;;1.08;0.90;;;;;;;;;;5004508;28;20110;-90
2024/02/18 13:57:23;;;;;;;0.90;0.90;;;;;;;;;;5010245;28;20513;-91
2024/02/18 13:59:50;;;;;;;1.02;0.88;;;;;;;;;;5011660;28;20056;-90
2024/02/18 14:02:17;;;;;;;1.35;1.05;;;;;;;;;;5010510;28;20050;-90
2024/02/18 14:04:45;;;;;;;1.20;0.90;;;;;;;;;;5003675;28;20057;-91
2024/02/18 14:07:17;;;;;;;0.90;0.88;;;;;;;;;;5003182;28;20078;-90
2024/02/18 14:09:44;;;;;;;1.25;0.80;;;;;;;;;;5003349;28;20057;-90
2024/02/18 14:12:12;;;;;;;1.90;0.77;;;;;;;;;;5006468;28;20143;-91
2024/02/18 14:14:41;;;;;;;1.40;1.30;;;;;;;;;;5008656;28;20066;-93
2024/02/18 14:17:08;;;;;;;1.50;0.70;;;;;;;;;;5016464;28;20058;-91
2024/02/18 14:19:36;;;;;;;1.17;0.80;;;;;;;;;;5003926;28;20077;-89
2024/02/18 14:22:03;;;;;;;1.17;0.70;;;;;;;;;;5003472;28;20054;-90
2024/02/18 14:24:31;;;;;;;0.85;0.85;;;;;;;;;;5008850;28;20101;-90
2024/02/18 14:26:58;;;;;;;0.65;0.65;;;;;;;;;;5006634;28;20097;-89
2024/02/18 14:29:25;;;;;;;0.82;0.82;;;;;;;;;;5010097;28;20056;-91
2024/02/18 14:31:52;;;;;;;1.00;0.90;;;;;;;;;;5003110;28;20182;-90
2024/02/18 14:34:20;;;;;;;0.73;0.73;;;;;;;;;;5007455;28;20054;-89
2024/02/18 14:36:48;;;;;;;1.20;0.90;;;;;;;;;;5006605;28;20062;-91
2024/02/18 14:39:15;;;;;;;1.38;0.90;;;;;;;;;;5003025;28;20298;-92